createdAt,value
2023-01-29T00:06:19.304Z,80
2023-01-29T00:21:19.324Z,80
2023-01-29T00:36:19.285Z,80
2023-01-29T00:51:19.253Z,80
2023-01-29T01:06:19.276Z,80
2023-01-29T01:21:19.248Z,80
2023-01-29T01:36:19.244Z,80
2023-01-29T01:51:19.262Z,81
2023-01-29T02:06:19.232Z,81
2023-01-29T02:21:19.237Z,81
2023-01-29T02:36:19.226Z,81
2023-01-29T02:51:19.257Z,81
2023-01-29T03:06:19.193Z,81
2023-01-29T03:21:19.190Z,81
2023-01-29T03:36:19.187Z,81
2023-01-29T03:51:19.222Z,82
2023-01-29T04:06:19.185Z,82
2023-01-29T04:21:19.202Z,82
2023-01-29T04:36:19.175Z,82
2023-01-29T04:51:19.193Z,82
2023-01-29T05:06:19.154Z,82
2023-01-29T05:21:19.198Z,81
2023-01-29T05:36:19.172Z,81
2023-01-29T05:51:19.142Z,80
2023-01-29T06:06:19.146Z,80
2023-01-29T06:21:20.117Z,80
2023-01-29T06:36:19.114Z,79
2023-01-29T06:51:19.153Z,79
2023-01-29T07:06:19.118Z,79
2023-01-29T07:21:19.157Z,79
2023-01-29T07:36:19.148Z,79
2023-01-29T07:51:19.155Z,79
2023-01-29T08:06:19.089Z,79
2023-01-29T08:21:19.139Z,78
2023-01-29T08:36:19.133Z,78
2023-01-29T08:51:19.120Z,78
2023-01-29T09:06:19.093Z,77
2023-01-29T09:21:19.106Z,77
2023-01-29T09:36:19.074Z,77
2023-01-29T09:51:19.104Z,77
2023-01-29T10:06:19.074Z,77
2023-01-29T10:21:19.078Z,77
2023-01-29T10:36:19.045Z,76
2023-01-29T10:51:19.054Z,76
2023-01-29T11:06:19.027Z,75
2023-01-29T11:21:19.052Z,75
2023-01-29T11:36:18.990Z,74
2023-01-29T11:51:19.027Z,74
2023-01-29T12:06:18.979Z,73
2023-01-29T12:21:19.020Z,73
2023-01-29T12:36:18.964Z,73
2023-01-29T12:51:18.982Z,73
2023-01-29T13:06:18.957Z,73
2023-01-29T13:21:18.958Z,73
2023-01-29T13:36:18.936Z,73
2023-01-29T13:51:18.953Z,73
2023-01-29T14:06:18.891Z,72
2023-01-29T14:21:18.916Z,72
2023-01-29T14:36:18.917Z,73
2023-01-29T14:51:18.919Z,73
2023-01-29T15:06:18.873Z,73
2023-01-29T15:21:18.874Z,73
2023-01-29T15:36:18.874Z,73
2023-01-29T15:51:18.898Z,73
2023-01-29T16:06:18.827Z,72
2023-01-29T16:21:18.809Z,72
2023-01-29T16:36:18.804Z,72
2023-01-29T16:51:18.807Z,72
2023-01-29T17:06:18.778Z,72
2023-01-29T17:21:18.806Z,72
2023-01-29T17:36:18.756Z,72
2023-01-29T17:51:18.777Z,72
2023-01-29T18:06:18.747Z,73
2023-01-29T18:21:18.819Z,73
2023-01-29T18:36:18.763Z,73
2023-01-29T18:51:18.766Z,73
2023-01-29T19:06:18.708Z,73
2023-01-29T19:21:18.750Z,74
2023-01-29T19:36:18.699Z,74
2023-01-29T19:51:18.739Z,74
2023-01-29T20:06:18.779Z,74
2023-01-29T20:21:18.736Z,75
2023-01-29T20:36:18.731Z,75
2023-01-29T20:51:18.676Z,75
2023-01-29T21:06:18.692Z,75
2023-01-29T21:21:18.702Z,75
2023-01-29T21:36:18.664Z,75
2023-01-29T21:51:18.970Z,75
2023-01-29T22:06:18.647Z,75
2023-01-29T22:21:18.676Z,76
2023-01-29T22:36:18.641Z,76
2023-01-29T22:51:18.678Z,76
2023-01-29T23:06:18.658Z,76
2023-01-29T23:21:18.690Z,76
2023-01-29T23:36:18.628Z,76
2023-01-29T23:51:18.717Z,76
